Time;durP1;ratioP1;P1;durP2;ratioP2;P2;SDS_P1;SDS_P2;PMS_P1;PMS_P2;Temp;Humidity;BMP_temperature;BMP_pressure;BME280_temperature;BME280_humidity;BME280_pressure;Samples;Min_cycle;Max_cycle;Signal;HPM_P1;HPM_P2
2024/04/25 00:01:29;;;;;;;5.32;2.47;;;;;;;7.41;66.65;99092.22;4448461;26;20016;-68
2024/04/25 00:03:31;;;;;;;3.72;1.88;;;;;;;7.31;66.85;99094.91;4479695;26;20317;-68
2024/04/25 00:05:31;;;;;;;4.07;2.00;;;;;;;7.32;66.83;99093.94;4481125;26;21090;-68
2024/04/25 00:07:31;;;;;;;4.85;2.22;;;;;;;7.36;66.79;99093.66;4453841;26;20073;-68
2024/04/25 00:09:33;;;;;;;6.97;2.70;;;;;;;7.45;66.50;99084.78;4493861;26;20011;-68
2024/04/25 00:11:33;;;;;;;5.82;2.03;;;;;;;7.52;66.06;99092.97;4484000;26;20026;-67
2024/04/25 00:13:34;;;;;;;4.68;2.13;;;;;;;7.54;65.94;99093.69;4477613;26;20014;-68
2024/04/25 00:15:34;;;;;;;5.78;2.28;;;;;;;7.52;66.21;99088.50;4478613;26;20454;-68
2024/04/25 00:17:36;;;;;;;5.20;2.17;;;;;;;7.48;66.52;99097.75;4448850;26;19997;-68
2024/04/25 00:19:36;;;;;;;5.65;2.25;;;;;;;7.36;66.73;99085.66;4479487;26;20313;-68
2024/04/25 00:21:37;;;;;;;4.47;2.00;;;;;;;7.41;66.59;99094.03;4479847;26;20014;-68
2024/04/25 00:23:37;;;;;;;6.90;2.25;;;;;;;7.36;66.55;99090.97;4478797;26;20007;-68
2024/04/25 00:25:38;;;;;;;5.22;2.70;;;;;;;7.22;66.98;99093.13;4489804;26;20003;-69
2024/04/25 00:27:38;;;;;;;4.35;1.90;;;;;;;7.45;66.27;99098.06;4495471;26;20011;-70
2024/04/25 00:29:39;;;;;;;4.18;1.92;;;;;;;7.36;66.71;99097.13;4484609;26;19999;-69
2024/04/25 00:31:39;;;;;;;7.78;2.60;;;;;;;7.39;66.44;99094.19;4447511;26;20004;-69
2024/04/25 00:33:40;;;;;;;6.53;2.50;;;;;;;7.45;66.32;99087.44;4478690;26;20003;-68
2024/04/25 00:35:40;;;;;;;5.38;2.00;;;;;;;7.43;66.59;99090.22;4479358;26;20000;-69
2024/04/25 00:37:41;;;;;;;5.60;2.58;;;;;;;7.53;66.10;99087.53;4479060;26;20000;-68
2024/04/25 00:39:41;;;;;;;4.65;2.20;;;;;;;7.53;66.12;99082.22;4478553;26;20019;-69
2024/04/25 00:41:42;;;;;;;8.02;2.17;;;;;;;7.51;66.11;99089.50;4478355;26;20082;-69
2024/04/25 00:43:42;;;;;;;5.40;2.38;;;;;;;7.41;66.25;99089.56;4477692;26;20011;-69
2024/04/25 00:45:43;;;;;;;6.68;2.13;;;;;;;7.51;66.17;99084.19;4447772;26;20043;-69
2024/04/25 00:47:44;;;;;;;5.13;2.08;;;;;;;7.42;66.41;99090.38;4478733;26;20018;-68
2024/04/25 00:49:46;;;;;;;4.95;2.15;;;;;;;7.47;66.16;99080.13;4447698;26;20015;-68
2024/04/25 00:51:48;;;;;;;4.25;1.92;;;;;;;7.44;66.31;99088.41;4478544;26;20031;-68
2024/04/25 00:53:50;;;;;;;5.90;1.95;;;;;;;7.48;65.99;99084.47;4478494;26;20500;-68
2024/04/25 00:55:52;;;;;;;7.05;1.80;;;;;;;7.42;66.15;99079.75;4478096;26;20000;-69
2024/04/25 00:57:55;;;;;;;5.30;2.08;;;;;;;7.48;65.97;99085.31;4478354;26;20014;-68
2024/04/25 00:59:58;;;;;;;4.13;2.03;;;;;;;7.45;66.18;99084.78;4478505;26;20004;-68
2024/04/25 01:02:01;;;;;;;5.97;2.20;;;;;;;7.43;66.42;99084.09;4478115;26;20000;-68
2024/04/25 01:04:03;;;;;;;5.50;2.40;;;;;;;7.39;66.32;99085.34;4477388;26;20003;-68
2024/04/25 01:06:07;;;;;;;6.07;2.03;;;;;;;7.42;66.29;99085.88;4478181;26;20003;-69
2024/04/25 01:08:08;;;;;;;3.53;1.70;;;;;;;7.52;65.87;99079.69;4478443;26;19999;-69
2024/04/25 01:10:08;;;;;;;5.68;2.25;;;;;;;7.54;65.94;99073.25;4478415;26;20015;-69
2024/04/25 01:12:09;;;;;;;4.43;2.07;;;;;;;7.45;66.20;99079.47;4477656;26;20068;-69
2024/04/25 01:14:09;;;;;;;4.38;2.08;;;;;;;7.36;66.29;99083.84;4477025;26;20225;-69
2024/04/25 01:16:12;;;;;;;5.53;2.17;;;;;;;7.32;66.25;99077.97;4477759;26;20003;-69
2024/04/25 01:18:13;;;;;;;4.63;1.80;;;;;;;7.36;66.16;99072.38;4478333;26;20014;-69
2024/04/25 01:20:14;;;;;;;5.22;2.72;;;;;;;7.38;65.92;99075.69;4478062;26;20043;-69
2024/04/25 01:22:14;;;;;;;6.50;2.55;;;;;;;7.30;66.13;99074.63;4477947;26;20000;-70
2024/04/25 01:24:22;;;;;;;8.80;2.40;;;;;;;7.25;66.28;99070.72;4478073;26;20006;-69
2024/04/25 01:26:22;;;;;;;5.60;2.20;;;;;;;7.14;66.37;99077.09;4478087;26;20003;-68
2024/04/25 01:28:23;;;;;;;4.93;2.53;;;;;;;7.26;66.06;99070.59;4478646;26;20033;-69
2024/04/25 01:30:27;;;;;;;5.78;2.25;;;;;;;7.19;66.72;99074.81;4478460;26;20014;-68
2024/04/25 01:32:28;;;;;;;4.68;2.30;;;;;;;7.22;66.31;99068.38;4477336;26;20010;-68
2024/04/25 01:34:29;;;;;;;4.40;2.13;;;;;;;7.20;66.43;99068.50;4477457;26;20011;-69
2024/04/25 01:36:30;;;;;;;7.10;2.60;;;;;;;7.01;66.84;99067.59;4477934;26;20010;-69
2024/04/25 01:38:30;;;;;;;6.82;2.10;;;;;;;7.15;66.40;99062.81;4479512;26;20014;-68
2024/04/25 01:40:30;;;;;;;6.80;2.60;;;;;;;7.06;66.89;99069.81;4495867;26;20003;-69
2024/04/25 01:42:31;;;;;;;6.55;3.08;;;;;;;6.94;67.22;99076.34;4499857;26;20009;-69
2024/04/25 01:44:32;;;;;;;5.53;2.55;;;;;;;7.12;66.63;99071.91;4505993;26;20009;-68
2024/04/25 01:46:34;;;;;;;4.47;2.10;;;;;;;7.33;66.09;99069.03;4473067;26;20008;-68
2024/04/25 01:48:35;;;;;;;4.28;2.00;;;;;;;7.12;66.38;99068.41;4448583;26;20015;-68
2024/04/25 01:50:35;;;;;;;7.72;3.30;;;;;;;6.96;67.06;99069.03;4448886;26;20544;-68
2024/04/25 01:52:36;;;;;;;5.88;2.05;;;;;;;7.24;66.06;99061.06;4449066;26;20325;-68
2024/04/25 01:54:37;;;;;;;6.25;2.33;;;;;;;7.29;66.02;99058.81;4448645;26;20028;-68
2024/04/25 01:56:37;;;;;;;4.15;2.20;;;;;;;7.24;66.03;99067.25;4455779;26;20000;-69
2024/04/25 01:58:37;;;;;;;5.32;2.67;;;;;;;7.14;66.41;99055.81;4460047;26;20043;-69
2024/04/25 02:00:38;;;;;;;7.07;2.65;;;;;;;6.95;66.77;99057.56;4460326;26;20031;-73
2024/04/25 02:02:39;;;;;;;4.00;2.08;;;;;;;7.09;66.68;99064.22;4460640;26;20004;-69
2024/04/25 02:04:40;;;;;;;7.95;2.97;;;;;;;7.10;66.86;99060.59;4451144;26;20011;-68
2024/04/25 02:06:40;;;;;;;4.82;2.22;;;;;;;7.00;66.83;99057.97;4448393;26;20666;-69
2024/04/25 02:08:41;;;;;;;5.35;2.40;;;;;;;7.01;66.86;99059.63;4448790;26;20381;-68
2024/04/25 02:10:41;;;;;;;5.55;2.67;;;;;;;7.00;66.87;99049.97;4449060;26;20001;-69
2024/04/25 02:12:42;;;;;;;7.32;2.40;;;;;;;7.05;66.75;99046.88;4448443;26;20004;-68
2024/04/25 02:14:42;;;;;;;8.52;3.05;;;;;;;6.99;66.97;99050.13;4452298;26;20010;-69
2024/04/25 02:16:43;;;;;;;5.27;2.73;;;;;;;7.01;66.86;99053.50;4459746;26;20084;-69
2024/04/25 02:18:44;;;;;;;4.88;2.42;;;;;;;7.04;66.96;99055.84;4461039;26;20318;-69
2024/04/25 02:25:22;;;;;;;7.60;3.00;;;;;;;6.95;67.10;99046.94;4457841;26;20012;-69
2024/04/25 02:27:23;;;;;;;7.82;3.35;;;;;;;6.89;67.01;99041.38;4450357;26;19996;-69
2024/04/25 02:29:23;;;;;;;7.22;3.00;;;;;;;7.00;67.00;99044.66;4448526;26;20015;-68
2024/04/25 02:31:31;;;;;;;8.63;2.90;;;;;;;6.98;67.16;99043.16;4447994;26;20225;-68
2024/04/25 02:33:31;;;;;;;5.35;2.40;;;;;;;6.93;67.22;99048.09;4454007;26;20708;-69
2024/04/25 02:35:32;;;;;;;5.40;2.97;;;;;;;6.91;67.14;99048.22;4476955;26;20003;-68
2024/04/25 02:37:33;;;;;;;5.47;2.92;;;;;;;6.91;66.96;99042.88;4476926;26;20301;-68
2024/04/25 02:39:33;;;;;;;5.65;2.90;;;;;;;6.93;67.03;99043.59;4476686;26;20032;-69
2024/04/25 02:41:34;;;;;;;6.43;2.70;;;;;;;6.94;67.08;99047.09;4476738;26;20426;-69
2024/04/25 02:43:34;;;;;;;9.00;3.25;;;;;;;6.82;67.35;99049.06;4476394;26;20011;-68
2024/04/25 02:45:35;;;;;;;5.75;3.03;;;;;;;6.95;67.07;99043.44;4476745;26;20014;-69
2024/04/25 02:47:36;;;;;;;8.57;3.30;;;;;;;6.94;67.24;99039.94;4477560;26;20451;-68
2024/04/25 02:49:37;;;;;;;5.25;3.30;;;;;;;6.95;67.07;99041.63;4477312;26;20000;-68
2024/04/25 02:51:37;;;;;;;7.70;4.05;;;;;;;6.98;67.19;99043.16;4476930;26;20014;-69
2024/04/25 02:53:38;;;;;;;8.48;3.67;;;;;;;6.93;67.31;99042.75;4477041;26;20372;-69
2024/04/25 02:55:40;;;;;;;5.30;3.20;;;;;;;6.97;66.97;99047.63;4480232;26;20476;-68
2024/04/25 02:57:41;;;;;;;6.50;3.13;;;;;;;6.93;67.24;99048.91;4449700;26;20456;-68
2024/04/25 02:59:41;;;;;;;9.40;4.10;;;;;;;6.89;67.42;99044.03;4449361;26;20011;-68
2024/04/25 03:01:42;;;;;;;6.80;3.70;;;;;;;6.93;67.13;99038.28;4486481;26;20010;-69
2024/04/25 03:03:47;;;;;;;16.15;3.63;;;;;;;6.92;67.42;99052.53;4501321;26;19995;-69
2024/04/25 03:05:47;;;;;;;6.93;4.00;;;;;;;6.89;67.37;99044.03;4453770;26;20000;-68
2024/04/25 03:07:48;;;;;;;6.20;3.15;;;;;;;6.93;67.55;99048.09;4480547;26;20160;-69
2024/04/25 03:09:48;;;;;;;9.30;4.22;;;;;;;6.84;67.82;99045.31;4450157;26;20556;-69
2024/04/25 03:11:49;;;;;;;7.60;3.67;;;;;;;6.85;67.71;99040.81;4485474;26;19996;-68
2024/04/25 03:13:49;;;;;;;7.00;3.60;;;;;;;6.95;67.43;99048.75;4491936;26;20328;-69
2024/04/25 03:15:50;;;;;;;9.80;4.25;;;;;;;6.83;67.74;99040.13;4491482;26;20049;-69
2024/04/25 03:17:50;;;;;;;6.80;4.03;;;;;;;6.92;67.60;99043.75;4490681;26;20011;-68
2024/04/25 03:19:50;;;;;;;6.40;3.83;;;;;;;7.00;67.12;99044.66;4491427;26;20261;-68
2024/04/25 03:21:51;;;;;;;6.70;4.05;;;;;;;7.03;67.14;99049.69;4461127;26;20222;-69
2024/04/25 03:23:51;;;;;;;7.07;3.40;;;;;;;7.16;66.97;99048.53;4491947;26;20052;-69
2024/04/25 03:25:52;;;;;;;9.52;4.28;;;;;;;7.03;67.28;99043.56;4482256;26;20003;-68
2024/04/25 03:27:52;;;;;;;7.05;3.90;;;;;;;7.13;66.85;99051.47;4450074;26;20401;-69
2024/04/25 03:29:54;;;;;;;7.40;3.95;;;;;;;6.97;67.34;99050.31;4480475;26;20007;-69
2024/04/25 03:31:55;;;;;;;6.30;3.58;;;;;;;7.10;67.36;99060.59;4479987;26;20675;-69
2024/04/25 03:33:55;;;;;;;8.83;4.00;;;;;;;6.86;67.79;99047.81;4448364;26;20055;-68
2024/04/25 03:35:56;;;;;;;8.30;4.47;;;;;;;7.01;67.72;99045.53;4479956;26;20558;-68
2024/04/25 03:37:56;;;;;;;8.63;4.47;;;;;;;7.06;67.44;99053.88;4479953;26;20003;-68
2024/04/25 03:39:56;;;;;;;6.30;4.03;;;;;;;6.97;67.82;99050.31;4480030;26;20007;-69
2024/04/25 03:41:57;;;;;;;8.63;4.60;;;;;;;6.84;68.34;99052.44;4479392;26;20836;-68
2024/04/25 03:43:57;;;;;;;9.27;5.10;;;;;;;6.92;67.90;99052.53;4447854;26;20014;-68
2024/04/25 03:45:58;;;;;;;8.10;4.05;;;;;;;6.85;68.38;99052.28;4479490;26;20000;-69
2024/04/25 03:47:59;;;;;;;9.13;5.03;;;;;;;6.70;68.74;99054.59;4480170;26;20008;-68
2024/04/25 03:50:00;;;;;;;8.82;5.13;;;;;;;6.88;68.34;99051.19;4479290;26;20490;-69
2024/04/25 03:52:00;;;;;;;9.75;4.68;;;;;;;7.03;67.79;99055.03;4479404;26;20046;-68
2024/04/25 03:54:02;;;;;;;9.88;5.07;;;;;;;6.67;68.58;99060.19;4478954;26;20076;-69
2024/04/25 03:56:02;;;;;;;;;;;;;;;6.86;68.41;99045.97;4479924;26;20468;-68
2024/04/25 03:58:03;;;;;;;11.23;4.80;;;;;;;6.92;68.02;99054.38;4477909;26;19993;-68
2024/04/25 04:00:04;;;;;;;8.82;4.57;;;;;;;6.84;68.17;99052.44;4479557;26;20002;-69
2024/04/25 04:02:04;;;;;;;9.60;5.50;;;;;;;6.78;68.27;99050.38;4478825;26;19996;-68
2024/04/25 04:04:05;;;;;;;6.60;4.27;;;;;;;6.96;67.90;99053.94;4478140;26;20002;-68
2024/04/25 04:06:06;;;;;;;8.88;4.57;;;;;;;7.04;67.56;99058.50;4476614;26;20217;-68
2024/04/25 04:08:07;;;;;;;8.75;5.38;;;;;;;6.94;68.08;99057.72;4475445;26;20465;-69
2024/04/25 04:10:08;;;;;;;8.60;4.60;;;;;;;7.00;67.94;99059.78;4447391;26;20007;-68
2024/04/25 04:12:08;;;;;;;12.73;4.82;;;;;;;6.89;68.05;99063.47;4478208;26;20011;-68
2024/04/25 04:14:09;;;;;;;12.10;4.95;;;;;;;7.00;67.70;99068.59;4477382;26;20007;-69
2024/04/25 04:16:09;;;;;;;7.22;4.95;;;;;;;7.13;67.43;99064.78;4447523;26;20065;-68
2024/04/25 04:18:09;;;;;;;14.10;5.28;;;;;;;7.01;67.60;99059.63;4449030;26;19996;-69
2024/04/25 04:20:10;;;;;;;10.32;5.10;;;;;;;7.00;67.61;99055.31;4478083;26;20333;-68
2024/04/25 04:22:10;;;;;;;10.20;5.13;;;;;;;7.04;67.67;99058.50;4478086;26;19999;-68
2024/04/25 04:24:14;;;;;;;9.52;4.82;;;;;;;7.07;67.38;99052.09;4478089;26;20003;-69
2024/04/25 04:26:15;;;;;;;8.23;4.90;;;;;;;7.08;67.70;99059.06;4478105;26;20035;-68
2024/04/25 04:28:16;;;;;;;11.35;5.30;;;;;;;6.99;67.88;99058.13;4478810;26;20007;-69
2024/04/25 04:30:16;;;;;;;10.52;5.40;;;;;;;6.90;68.13;99053.66;4448139;26;19992;-69
2024/04/25 04:32:17;;;;;;;9.13;5.43;;;;;;;6.95;68.06;99062.88;4446931;26;19996;-68
2024/04/25 04:34:17;;;;;;;10.57;5.70;;;;;;;7.01;67.65;99056.16;4477537;26;20077;-69
2024/04/25 04:36:17;;;;;;;9.57;5.40;;;;;;;6.98;67.41;99051.97;4447898;26;20001;-69
2024/04/25 04:38:18;;;;;;;7.30;5.00;;;;;;;6.87;68.02;99049.50;4440885;26;19997;-68
2024/04/25 04:40:18;;;;;;;12.53;5.93;;;;;;;6.95;67.81;99062.03;4449950;26;20238;-69
2024/04/25 04:42:19;;;;;;;9.47;5.73;;;;;;;6.87;68.03;99054.81;4451101;26;20008;-69
2024/04/25 04:44:19;;;;;;;9.77;5.30;;;;;;;6.97;67.82;99055.63;4432938;26;20068;-71
2024/04/25 04:46:20;;;;;;;13.03;5.83;;;;;;;6.81;68.36;99052.72;4460958;26;20008;-69
2024/04/25 04:48:21;;;;;;;10.48;6.15;;;;;;;6.68;68.77;99055.69;4428216;26;20272;-69
2024/04/25 04:50:22;;;;;;;15.38;6.88;;;;;;;6.78;68.37;99063.66;4460675;26;20011;-69
2024/04/25 04:52:25;;;;;;;13.40;6.10;;;;;;;6.90;68.61;99054.50;4462449;26;19992;-70
2024/04/25 04:54:26;;;;;;;9.88;5.90;;;;;;;6.82;68.33;99067.69;4460858;26;20420;-68
2024/04/25 04:56:26;;;;;;;11.47;6.20;;;;;;;6.80;68.38;99054.53;4448991;26;20031;-68
2024/04/25 04:58:27;;;;;;;11.00;6.10;;;;;;;6.75;68.47;99061.28;4450029;26;20215;-68
2024/04/25 05:00:27;;;;;;;11.15;6.07;;;;;;;6.70;68.42;99065.22;4450684;26;20024;-68
2024/04/25 05:02:27;;;;;;;12.55;6.72;;;;;;;7.05;67.70;99062.00;4418604;26;20001;-69
2024/04/25 05:04:28;;;;;;;13.73;5.75;;;;;;;7.08;67.62;99065.22;4449190;26;19992;-69
2024/04/25 05:06:28;;;;;;;8.45;5.65;;;;;;;7.22;67.02;99063.88;4418412;26;20070;-69
2024/04/25 05:08:31;;;;;;;11.27;5.93;;;;;;;7.01;67.81;99072.09;4448958;26;20000;-69
2024/04/25 05:10:31;;;;;;;12.35;5.75;;;;;;;7.20;67.04;99071.16;4449102;26;19993;-69
2024/04/25 05:12:32;;;;;;;15.02;5.60;;;;;;;7.03;67.58;99065.66;4419312;26;20003;-69
2024/04/25 05:14:32;;;;;;;12.23;5.88;;;;;;;6.89;67.88;99068.78;4419596;26;20495;-69
2024/04/25 05:16:33;;;;;;;13.35;6.95;;;;;;;6.93;68.03;99069.34;4448826;26;20011;-68
2024/04/25 05:18:33;;;;;;;12.02;6.07;;;;;;;6.96;67.75;99069.88;4449149;26;19993;-69
2024/04/25 05:20:34;;;;;;;10.33;5.37;;;;;;;7.03;67.69;99073.63;4450403;26;20069;-69
2024/04/25 05:22:36;;;;;;;9.85;5.43;;;;;;;7.11;67.40;99080.88;4419864;26;20231;-69
2024/04/25 05:24:36;;;;;;;11.73;6.72;;;;;;;6.82;67.64;99075.63;4449695;26;19992;-69
2024/04/25 05:26:36;;;;;;;12.63;6.93;;;;;;;7.08;67.40;99081.16;4449859;26;20438;-67
2024/04/25 05:28:37;;;;;;;9.07;5.57;;;;;;;6.94;67.70;99089.63;4450521;26;20305;-69
2024/04/25 05:30:37;;;;;;;10.67;5.00;;;;;;;6.86;67.58;99090.31;4449837;26;20387;-68
2024/04/25 05:32:38;;;;;;;13.30;5.72;;;;;;;6.75;67.62;99093.16;4450374;26;20000;-70
2024/04/25 05:34:39;;;;;;;13.55;5.82;;;;;;;6.83;67.87;99098.56;4448242;26;20001;-68
2024/04/25 05:36:39;;;;;;;7.93;4.88;;;;;;;6.93;67.36;99090.59;4448667;26;20004;-68
2024/04/25 05:38:40;;;;;;;8.50;4.65;;;;;;;6.96;66.88;99080.50;4467913;26;19991;-68
2024/04/25 05:40:41;;;;;;;11.57;6.17;;;;;;;6.93;67.39;99096.72;4496569;26;19995;-70
2024/04/25 05:42:42;;;;;;;9.57;5.93;;;;;;;7.05;66.70;99088.59;4480368;26;20014;-71
2024/04/25 05:44:47;;;;;;;12.68;5.78;;;;;;;6.84;67.33;99095.78;4477129;26;19996;-68
2024/04/25 05:46:47;;;;;;;13.55;6.07;;;;;;;6.75;67.61;99094.00;4446117;26;19997;-68
2024/04/25 05:48:47;;;;;;;10.73;5.90;;;;;;;6.65;67.85;99090.53;4476994;26;20010;-68
2024/04/25 05:50:48;;;;;;;8.95;5.18;;;;;;;6.79;67.40;99091.91;4476980;26;20335;-68
2024/04/25 05:52:48;;;;;;;8.77;5.25;;;;;;;6.95;66.83;99088.59;4476960;26;19998;-69
2024/04/25 05:54:49;;;;;;;10.02;5.25;;;;;;;6.74;67.33;99088.81;4478869;26;19999;-68
2024/04/25 05:56:49;;;;;;;11.00;4.88;;;;;;;6.69;67.29;99091.91;4479879;26;20030;-68
2024/04/25 05:58:53;;;;;;;16.20;4.30;;;;;;;6.64;67.11;99102.94;4479081;26;19996;-70
2024/04/25 06:00:53;;;;;;;10.25;4.05;;;;;;;6.59;66.80;99107.00;4480237;26;20562;-68
2024/04/25 06:02:54;;;;;;;11.53;4.00;;;;;;;6.69;66.50;99108.69;4480185;26;19992;-68
2024/04/25 06:04:54;;;;;;;12.20;3.77;;;;;;;6.73;66.43;99106.59;4477726;26;20688;-68
2024/04/25 06:06:54;;;;;;;12.70;4.22;;;;;;;6.63;66.60;99105.75;4476699;26;19999;-68
2024/04/25 06:08:55;;;;;;;8.27;3.88;;;;;;;6.36;67.74;99116.13;4477604;26;20082;-69
2024/04/25 06:10:55;;;;;;;10.60;3.90;;;;;;;6.19;68.53;99114.16;4482909;26;20072;-68
2024/04/25 06:12:56;;;;;;;9.23;4.68;;;;;;;6.02;68.95;99118.34;4478573;26;20572;-68
2024/04/25 06:14:56;;;;;;;12.98;3.95;;;;;;;6.16;68.75;99114.44;4481538;26;20052;-69
2024/04/25 06:16:57;;;;;;;12.07;3.53;;;;;;;6.18;69.15;99117.81;4485217;26;20459;-69
2024/04/25 06:18:57;;;;;;;12.30;3.67;;;;;;;6.19;68.75;99115.00;4488190;26;19996;-69
2024/04/25 06:20:57;;;;;;;5.57;3.07;;;;;;;6.27;68.35;99118.78;4485423;26;20225;-71
2024/04/25 06:22:58;;;;;;;6.72;3.20;;;;;;;6.42;68.16;99119.22;4484504;26;20000;-68
2024/04/25 06:25:01;;;;;;;12.73;3.28;;;;;;;6.45;67.97;99118.91;4485061;26;20040;-69
2024/04/25 06:27:02;;;;;;;10.65;3.67;;;;;;;6.54;67.94;99112.75;4453942;26;20043;-68
2024/04/25 06:29:02;;;;;;;9.43;2.60;;;;;;;6.61;67.74;99116.53;4479232;26;20007;-68
2024/04/25 06:31:03;;;;;;;7.80;3.13;;;;;;;6.85;67.02;99117.88;4448636;26;20001;-68
2024/04/25 06:33:03;;;;;;;7.32;3.00;;;;;;;6.65;67.89;99114.44;4480607;26;20039;-69
2024/04/25 06:35:04;;;;;;;7.75;3.10;;;;;;;6.64;67.67;99121.53;4480192;26;20024;-68
2024/04/25 06:37:07;;;;;;;7.85;2.78;;;;;;;6.77;67.34;99117.75;4448873;26;20448;-68
2024/04/25 06:39:09;;;;;;;10.65;3.17;;;;;;;6.93;67.17;99112.69;4448390;26;20044;-68
2024/04/25 06:41:09;;;;;;;7.30;3.17;;;;;;;6.98;67.07;99122.88;4479653;26;20003;-68
2024/04/25 06:43:10;;;;;;;7.10;2.63;;;;;;;7.19;66.61;99112.03;4479593;26;20010;-68
2024/04/25 06:45:10;;;;;;;7.57;3.55;;;;;;;7.22;66.27;99119.72;4479374;26;20572;-68
2024/04/25 06:47:11;;;;;;;7.00;3.03;;;;;;;7.29;66.45;99120.81;4479705;26;20064;-68
2024/04/25 06:49:11;;;;;;;7.05;3.55;;;;;;;7.21;66.53;99118.03;4480840;26;20791;-68
2024/04/25 06:51:12;;;;;;;6.73;3.00;;;;;;;7.40;66.33;99114.47;4479505;26;20011;-68
2024/04/25 06:53:13;;;;;;;8.50;3.63;;;;;;;7.41;66.37;99120.63;4479300;26;20951;-68
2024/04/25 06:55:13;;;;;;;5.45;3.03;;;;;;;7.56;65.74;99118.31;4448841;26;20000;-68
2024/04/25 06:57:14;;;;;;;5.97;3.30;;;;;;;7.71;65.33;99126.63;4448742;26;20004;-68
2024/04/25 06:59:14;;;;;;;7.53;3.40;;;;;;;7.51;65.77;99118.75;4448848;26;20235;-68
2024/04/25 07:01:14;;;;;;;7.82;3.40;;;;;;;7.59;65.86;99123.34;4448528;26;20000;-69
2024/04/25 07:03:15;;;;;;;5.30;2.97;;;;;;;7.96;64.82;99125.91;4479026;26;20046;-68
2024/04/25 07:05:15;;;;;;;6.68;3.40;;;;;;;7.86;65.30;99129.63;4479837;26;20325;-68
2024/04/25 07:07:16;;;;;;;7.97;3.65;;;;;;;8.06;64.86;99119.66;4479575;26;20023;-69
2024/04/25 07:09:16;;;;;;;6.30;3.23;;;;;;;8.16;64.70;99125.75;4480204;26;19995;-68
2024/04/25 07:11:17;;;;;;;8.90;4.10;;;;;;;7.95;64.92;99121.56;4479745;26;20799;-68
2024/04/25 07:13:17;;;;;;;8.48;3.60;;;;;;;7.96;64.82;99125.91;4478975;26;20700;-69
2024/04/25 07:15:21;;;;;;;9.30;4.20;;;;;;;8.15;64.67;99123.25;4479796;26;20007;-68
2024/04/25 07:17:21;;;;;;;7.32;4.07;;;;;;;7.97;64.88;99124.91;4479652;26;20004;-68
2024/04/25 07:19:22;;;;;;;6.90;4.15;;;;;;;7.99;64.57;99123.94;4479751;26;20010;-68
2024/04/25 07:21:26;;;;;;;9.45;4.97;;;;;;;7.51;66.16;99121.41;4479458;26;19999;-68
2024/04/25 07:23:27;;;;;;;7.32;4.55;;;;;;;7.62;65.85;99123.03;4481768;26;20008;-67
2024/04/25 07:25:27;;;;;;;11.25;4.82;;;;;;;7.74;65.71;99121.84;4490812;26;20045;-72
2024/04/25 07:27:30;;;;;;;11.57;5.22;;;;;;;7.79;65.27;99114.22;4492696;26;19995;-67
2024/04/25 07:29:31;;;;;;;6.80;4.80;;;;;;;7.71;65.63;99122.13;4493478;26;20053;-68
2024/04/25 07:31:32;;;;;;;8.10;4.70;;;;;;;7.94;65.11;99121.72;4495330;26;20000;-68
2024/04/25 07:33:32;;;;;;;11.57;4.90;;;;;;;7.76;65.42;99119.03;4463900;26;20304;-73
2024/04/25 07:35:33;;;;;;;7.82;4.55;;;;;;;8.28;64.05;99119.22;4486678;26;20006;-68
2024/04/25 07:37:35;;;;;;;8.73;4.05;;;;;;;8.46;63.60;99120.19;4479993;26;20031;-68
2024/04/25 07:39:35;;;;;;;10.73;4.88;;;;;;;7.95;64.96;99116.25;4444132;26;20001;-68
2024/04/25 07:41:35;;;;;;;9.35;3.88;;;;;;;8.08;64.49;99118.53;4465523;26;20007;-71
2024/04/25 07:43:36;;;;;;;8.10;3.50;;;;;;;8.27;63.79;99120.22;4467504;26;19999;-71
2024/04/25 07:45:36;;;;;;;10.88;4.25;;;;;;;8.12;63.59;99119.09;4464576;26;20707;-72
2024/04/25 07:47:37;;;;;;;7.27;4.20;;;;;;;8.34;63.27;99116.94;4457246;26;20403;-72
2024/04/25 07:49:38;;;;;;;8.55;3.65;;;;;;;8.20;63.58;99121.81;4460380;26;20007;-71
2024/04/25 07:51:39;;;;;;;11.45;4.00;;;;;;;8.14;63.45;99126.91;4449732;26;20015;-71
2024/04/25 07:53:39;;;;;;;7.18;3.92;;;;;;;8.56;62.73;99121.81;4418603;26;20465;-71
2024/04/25 07:55:40;;;;;;;8.02;3.45;;;;;;;8.62;62.28;99119.53;4449532;26;19996;-71
2024/04/25 07:57:41;;;;;;;7.25;3.40;;;;;;;8.52;62.34;99115.13;4448958;26;20016;-71
2024/04/25 07:59:41;;;;;;;8.52;3.97;;;;;;;8.37;61.99;99120.13;4449185;26;19996;-71
2024/04/25 08:01:41;;;;;;;9.67;4.63;;;;;;;8.20;62.16;99126.28;4449708;26;19997;-71
2024/04/25 08:03:42;;;;;;;11.07;4.57;;;;;;;8.48;61.96;99123.56;4448682;26;20956;-71
2024/04/25 08:05:42;;;;;;;6.65;3.63;;;;;;;8.52;61.99;99125.78;4449215;26;19996;-71
2024/04/25 08:07:46;;;;;;;8.37;3.93;;;;;;;8.96;60.98;99116.09;4449808;26;20069;-71
2024/04/25 08:09:46;;;;;;;10.23;4.60;;;;;;;8.44;62.29;99128.34;4449024;26;20786;-71
2024/04/25 08:11:47;;;;;;;12.15;4.68;;;;;;;8.85;61.42;99117.19;4449313;26;20000;-71
2024/04/25 08:13:47;;;;;;;7.68;4.13;;;;;;;9.03;60.58;99117.97;4449553;26;19997;-71
2024/04/25 08:15:47;;;;;;;10.73;4.53;;;;;;;9.02;61.17;99115.47;4449360;26;19996;-71
2024/04/25 08:17:50;;;;;;;15.83;4.97;;;;;;;8.86;61.19;99117.06;4450567;26;20930;-71
2024/04/25 08:19:52;;;;;;;8.48;4.68;;;;;;;8.90;60.79;99113.06;4451399;26;20042;-71
2024/04/25 08:21:53;;;;;;;9.60;4.15;;;;;;;8.33;61.27;99118.78;4450271;26;20412;-71
2024/04/25 08:23:53;;;;;;;17.48;7.03;;;;;;;8.31;61.45;99122.59;4449177;26;20000;-71
2024/04/25 08:25:54;;;;;;;11.13;4.75;;;;;;;9.04;59.87;99119.63;4449941;26;20000;-73
2024/04/25 08:27:55;;;;;;;8.27;4.22;;;;;;;9.47;58.95;99114.34;4450364;26;20000;-71
2024/04/25 08:29:55;;;;;;;11.45;4.80;;;;;;;9.01;60.01;99119.97;4450431;26;20000;-71
2024/04/25 08:31:56;;;;;;;9.75;4.97;;;;;;;9.07;59.69;99125.66;4449302;26;20011;-71
2024/04/25 08:33:56;;;;;;;12.07;4.90;;;;;;;8.88;60.54;99115.03;4450263;26;19996;-71
2024/04/25 08:35:57;;;;;;;10.43;4.77;;;;;;;8.73;60.41;99121.94;4453900;26;20008;-71
2024/04/25 08:37:58;;;;;;;13.27;4.93;;;;;;;9.09;59.67;99121.84;4451713;26;20270;-71
2024/04/25 08:39:58;;;;;;;9.55;4.55;;;;;;;8.74;60.52;99120.94;4449116;26;20000;-71
2024/04/25 08:42:00;;;;;;;12.48;5.38;;;;;;;8.65;60.58;99114.72;4478063;26;19996;-71
2024/04/25 08:44:00;;;;;;;10.07;4.55;;;;;;;8.53;61.09;99119.47;4447170;26;19996;-71
2024/04/25 08:46:01;;;;;;;18.83;5.22;;;;;;;8.54;60.71;99117.66;4478575;26;19999;-71
2024/04/25 08:48:05;;;;;;;13.48;4.43;;;;;;;8.69;59.83;99115.28;4447986;26;19997;-71
2024/04/25 08:50:07;;;;;;;12.77;4.82;;;;;;;9.09;58.71;99113.84;4478638;26;20471;-71
2024/04/25 08:52:08;;;;;;;15.25;4.82;;;;;;;8.77;59.49;99109.13;4477891;26;20014;-71
2024/04/25 08:54:09;;;;;;;7.88;4.13;;;;;;;8.96;59.23;99100.94;4447129;26;20007;-70
2024/04/25 08:56:12;;;;;;;12.43;4.43;;;;;;;9.15;58.87;99107.03;4449353;26;20689;-71
2024/04/25 08:58:13;;;;;;;10.00;4.78;;;;;;;9.09;59.08;99100.50;4478339;26;20439;-71
2024/04/25 09:00:13;;;;;;;10.77;4.45;;;;;;;8.85;59.43;99096.72;4478479;26;20006;-71
2024/04/25 09:02:14;;;;;;;9.63;4.05;;;;;;;9.50;58.25;99099.84;4478297;26;20011;-71
2024/04/25 09:04:19;;;;;;;11.90;4.38;;;;;;;9.57;57.79;99097.38;4478087;26;20010;-71
2024/04/25 09:06:21;;;;;;;6.63;3.33;;;;;;;9.70;57.43;99103.09;4478512;26;20432;-71
2024/04/25 09:08:22;;;;;;;9.98;4.63;;;;;;;9.55;56.81;99099.38;4478191;26;20019;-71
2024/04/25 09:10:22;;;;;;;9.20;3.40;;;;;;;9.78;55.83;99095.13;4478157;26;20623;-71
2024/04/25 09:12:26;;;;;;;9.40;2.88;;;;;;;9.76;55.59;99096.28;4478180;26;20047;-71
2024/04/25 09:14:26;;;;;;;10.10;3.70;;;;;;;10.00;55.65;99092.84;4477692;26;20043;-71
2024/04/25 09:16:26;;;;;;;7.70;3.33;;;;;;;9.94;55.51;99086.31;4478254;26;20062;-73
2024/04/25 09:18:28;;;;;;;8.68;3.13;;;;;;;10.04;54.94;99083.47;4485262;26;20482;-71
2024/04/25 09:20:29;;;;;;;;;;;;;;;9.73;54.74;99094.75;4464380;26;19996;-71
2024/04/25 09:22:29;;;;;;;7.78;2.92;;;;;;;10.27;54.10;99082.84;4478733;26;20051;-71
2024/04/25 09:24:30;;;;;;;7.70;3.28;;;;;;;10.26;54.08;99086.53;4478012;26;20589;-71
2024/04/25 09:26:31;;;;;;;9.10;3.53;;;;;;;9.60;54.82;99083.72;4477856;26;20510;-71
2024/04/25 09:28:32;;;;;;;8.55;3.47;;;;;;;9.53;55.63;99096.88;4479854;26;20028;-72
2024/04/25 09:30:33;;;;;;;6.90;3.58;;;;;;;9.46;56.01;99095.84;4478877;26;19991;-71
2024/04/25 09:32:33;;;;;;;9.48;3.55;;;;;;;9.91;55.21;99099.16;4478114;26;20014;-71
2024/04/25 09:34:33;;;;;;;9.13;3.35;;;;;;;9.78;56.16;99096.94;4478558;26;19995;-71
2024/04/25 09:36:35;;;;;;;7.70;3.28;;;;;;;9.85;56.53;99087.31;4447498;26;19996;-71
2024/04/25 09:38:35;;;;;;;12.82;4.07;;;;;;;9.99;56.17;99085.81;4483623;26;20009;-71